sensor_id;sensor_type;location;lat;lon;timestamp;P1;durP1;ratioP1;P2;durP2;ratioP2
78131;SDS011;67381;47.672;9.380;2023-02-19T00:01:33;5.95;;;2.33;;
78131;SDS011;67381;47.672;9.380;2023-02-19T00:04:22;3.53;;;1.63;;
78131;SDS011;67381;47.672;9.380;2023-02-19T00:06:49;3.65;;;2.20;;
78131;SDS011;67381;47.672;9.380;2023-02-19T00:09:17;5.03;;;2.63;;
78131;SDS011;67381;47.672;9.380;2023-02-19T00:11:45;4.75;;;2.55;;
78131;SDS011;67381;47.672;9.380;2023-02-19T00:14:14;3.78;;;2.25;;
78131;SDS011;67381;47.672;9.380;2023-02-19T00:16:43;3.17;;;2.17;;
78131;SDS011;67381;47.672;9.380;2023-02-19T00:19:11;3.83;;;2.00;;
78131;SDS011;67381;47.672;9.380;2023-02-19T00:21:40;4.35;;;2.53;;
78131;SDS011;67381;47.672;9.380;2023-02-19T00:24:09;4.47;;;2.17;;
78131;SDS011;67381;47.672;9.380;2023-02-19T00:26:38;3.38;;;2.03;;
78131;SDS011;67381;47.672;9.380;2023-02-19T00:29:06;4.45;;;2.20;;
78131;SDS011;67381;47.672;9.380;2023-02-19T00:31:35;3.35;;;2.25;;
78131;SDS011;67381;47.672;9.380;2023-02-19T00:34:03;4.10;;;2.38;;
78131;SDS011;67381;47.672;9.380;2023-02-19T00:36:32;3.75;;;2.28;;
78131;SDS011;67381;47.672;9.380;2023-02-19T00:39:04;3.38;;;2.25;;
78131;SDS011;67381;47.672;9.380;2023-02-19T00:41:32;3.83;;;2.50;;
78131;SDS011;67381;47.672;9.380;2023-02-19T00:44:00;3.38;;;1.92;;
78131;SDS011;67381;47.672;9.380;2023-02-19T00:46:36;4.05;;;1.98;;
78131;SDS011;67381;47.672;9.380;2023-02-19T00:49:05;3.70;;;2.15;;
78131;SDS011;67381;47.672;9.380;2023-02-19T00:51:34;4.18;;;2.08;;
78131;SDS011;67381;47.672;9.380;2023-02-19T00:54:03;3.85;;;2.58;;
78131;SDS011;67381;47.672;9.380;2023-02-19T00:56:32;3.22;;;1.98;;
78131;SDS011;67381;47.672;9.380;2023-02-19T00:58:59;3.40;;;2.50;;
78131;SDS011;67381;47.672;9.380;2023-02-19T01:01:27;3.83;;;2.05;;
78131;SDS011;67381;47.672;9.380;2023-02-19T01:03:54;3.13;;;2.22;;
78131;SDS011;67381;47.672;9.380;2023-02-19T01:06:21;2.95;;;1.70;;
78131;SDS011;67381;47.672;9.380;2023-02-19T01:08:48;3.03;;;1.95;;
78131;SDS011;67381;47.672;9.380;2023-02-19T01:11:16;2.63;;;1.60;;
78131;SDS011;67381;47.672;9.380;2023-02-19T01:13:44;2.65;;;1.70;;
78131;SDS011;67381;47.672;9.380;2023-02-19T01:16:13;3.40;;;1.88;;
78131;SDS011;67381;47.672;9.380;2023-02-19T01:18:45;4.30;;;2.15;;
78131;SDS011;67381;47.672;9.380;2023-02-19T01:21:14;3.55;;;1.90;;
78131;SDS011;67381;47.672;9.380;2023-02-19T01:23:43;3.15;;;1.48;;
78131;SDS011;67381;47.672;9.380;2023-02-19T01:26:11;3.33;;;1.90;;
78131;SDS011;67381;47.672;9.380;2023-02-19T01:28:40;3.13;;;1.83;;
78131;SDS011;67381;47.672;9.380;2023-02-19T01:31:07;3.42;;;1.80;;
78131;SDS011;67381;47.672;9.380;2023-02-19T01:33:38;4.53;;;1.95;;
78131;SDS011;67381;47.672;9.380;2023-02-19T01:36:06;2.88;;;1.67;;
78131;SDS011;67381;47.672;9.380;2023-02-19T01:38:35;2.85;;;1.60;;
78131;SDS011;67381;47.672;9.380;2023-02-19T01:41:04;3.20;;;1.95;;
78131;SDS011;67381;47.672;9.380;2023-02-19T01:43:33;2.83;;;1.60;;
78131;SDS011;67381;47.672;9.380;2023-02-19T01:46:01;4.55;;;2.03;;
78131;SDS011;67381;47.672;9.380;2023-02-19T01:48:29;3.80;;;1.88;;
78131;SDS011;67381;47.672;9.380;2023-02-19T01:51:12;3.58;;;1.85;;
78131;SDS011;67381;47.672;9.380;2023-02-19T01:53:42;4.45;;;2.10;;
78131;SDS011;67381;47.672;9.380;2023-02-19T01:56:12;3.55;;;2.47;;
78131;SDS011;67381;47.672;9.380;2023-02-19T01:58:41;2.75;;;1.83;;
78131;SDS011;67381;47.672;9.380;2023-02-19T02:01:09;3.65;;;2.22;;
78131;SDS011;67381;47.672;9.380;2023-02-19T02:03:38;3.55;;;2.22;;
78131;SDS011;67381;47.672;9.380;2023-02-19T02:08:49;2.92;;;1.98;;
78131;SDS011;67381;47.672;9.380;2023-02-19T02:11:36;3.70;;;2.47;;
78131;SDS011;67381;47.672;9.380;2023-02-19T02:14:04;2.75;;;2.00;;
78131;SDS011;67381;47.672;9.380;2023-02-19T02:16:52;6.10;;;2.90;;
78131;SDS011;67381;47.672;9.380;2023-02-19T02:27:34;3.13;;;1.88;;
78131;SDS011;67381;47.672;9.380;2023-02-19T02:30:11;3.15;;;2.42;;
78131;SDS011;67381;47.672;9.380;2023-02-19T02:32:59;6.10;;;2.17;;
78131;SDS011;67381;47.672;9.380;2023-02-19T02:38:23;3.35;;;2.03;;
78131;SDS011;67381;47.672;9.380;2023-02-19T02:40:53;3.60;;;1.92;;
78131;SDS011;67381;47.672;9.380;2023-02-19T02:43:21;4.60;;;2.10;;
78131;SDS011;67381;47.672;9.380;2023-02-19T02:45:48;4.18;;;2.35;;
78131;SDS011;67381;47.672;9.380;2023-02-19T02:48:23;3.08;;;1.77;;
78131;SDS011;67381;47.672;9.380;2023-02-19T02:54:13;2.83;;;1.67;;
78131;SDS011;67381;47.672;9.380;2023-02-19T02:57:02;3.30;;;2.00;;
78131;SDS011;67381;47.672;9.380;2023-02-19T02:59:31;3.20;;;1.83;;
78131;SDS011;67381;47.672;9.380;2023-02-19T03:02:04;6.57;;;2.17;;
78131;SDS011;67381;47.672;9.380;2023-02-19T03:13:50;3.05;;;1.80;;
78131;SDS011;67381;47.672;9.380;2023-02-19T03:16:39;3.13;;;1.90;;
78131;SDS011;67381;47.672;9.380;2023-02-19T03:19:24;3.58;;;1.90;;
78131;SDS011;67381;47.672;9.380;2023-02-19T03:22:02;3.38;;;2.15;;
78131;SDS011;67381;47.672;9.380;2023-02-19T03:24:39;3.63;;;2.13;;
78131;SDS011;67381;47.672;9.380;2023-02-19T03:27:27;4.20;;;2.08;;
78131;SDS011;67381;47.672;9.380;2023-02-19T03:29:57;3.42;;;1.90;;
78131;SDS011;67381;47.672;9.380;2023-02-19T03:34:59;5.10;;;2.33;;
78131;SDS011;67381;47.672;9.380;2023-02-19T03:37:36;3.88;;;1.83;;
78131;SDS011;67381;47.672;9.380;2023-02-19T03:40:16;3.47;;;2.60;;
78131;SDS011;67381;47.672;9.380;2023-02-19T03:45:17;4.55;;;2.28;;
78131;SDS011;67381;47.672;9.380;2023-02-19T03:53:28;4.25;;;2.80;;
78131;SDS011;67381;47.672;9.380;2023-02-19T03:58:33;4.72;;;2.90;;
78131;SDS011;67381;47.672;9.380;2023-02-19T04:01:10;4.00;;;2.40;;
78131;SDS011;67381;47.672;9.380;2023-02-19T04:04:02;4.63;;;2.45;;
78131;SDS011;67381;47.672;9.380;2023-02-19T04:06:33;4.88;;;2.75;;
78131;SDS011;67381;47.672;9.380;2023-02-19T04:09:03;6.57;;;2.85;;
78131;SDS011;67381;47.672;9.380;2023-02-19T04:11:32;4.80;;;2.83;;
78131;SDS011;67381;47.672;9.380;2023-02-19T04:16:41;4.47;;;2.53;;
78131;SDS011;67381;47.672;9.380;2023-02-19T04:19:12;4.88;;;2.80;;
78131;SDS011;67381;47.672;9.380;2023-02-19T04:21:42;4.70;;;3.00;;
78131;SDS011;67381;47.672;9.380;2023-02-19T04:24:12;5.40;;;2.97;;
78131;SDS011;67381;47.672;9.380;2023-02-19T04:26:41;6.15;;;2.58;;
78131;SDS011;67381;47.672;9.380;2023-02-19T04:29:10;4.22;;;3.25;;
78131;SDS011;67381;47.672;9.380;2023-02-19T04:31:37;4.57;;;2.58;;
78131;SDS011;67381;47.672;9.380;2023-02-19T04:34:05;5.72;;;2.85;;
78131;SDS011;67381;47.672;9.380;2023-02-19T04:36:32;5.63;;;3.42;;
78131;SDS011;67381;47.672;9.380;2023-02-19T04:38:59;4.35;;;2.78;;
78131;SDS011;67381;47.672;9.380;2023-02-19T04:41:27;4.68;;;2.83;;
78131;SDS011;67381;47.672;9.380;2023-02-19T04:43:54;4.95;;;3.15;;
78131;SDS011;67381;47.672;9.380;2023-02-19T04:46:21;4.55;;;3.20;;
78131;SDS011;67381;47.672;9.380;2023-02-19T04:48:48;3.65;;;2.60;;
78131;SDS011;67381;47.672;9.380;2023-02-19T04:51:16;5.10;;;3.15;;
78131;SDS011;67381;47.672;9.380;2023-02-19T04:53:43;6.05;;;3.85;;
78131;SDS011;67381;47.672;9.380;2023-02-19T04:56:11;4.72;;;3.17;;
78131;SDS011;67381;47.672;9.380;2023-02-19T04:58:39;5.95;;;3.55;;
78131;SDS011;67381;47.672;9.380;2023-02-19T05:01:08;4.88;;;2.92;;
78131;SDS011;67381;47.672;9.380;2023-02-19T05:03:36;4.72;;;2.95;;
78131;SDS011;67381;47.672;9.380;2023-02-19T05:06:03;5.88;;;3.40;;
78131;SDS011;67381;47.672;9.380;2023-02-19T05:08:36;5.20;;;3.00;;
78131;SDS011;67381;47.672;9.380;2023-02-19T05:11:04;5.15;;;2.85;;
78131;SDS011;67381;47.672;9.380;2023-02-19T05:13:32;7.45;;;3.78;;
78131;SDS011;67381;47.672;9.380;2023-02-19T05:16:01;7.50;;;4.38;;
78131;SDS011;67381;47.672;9.380;2023-02-19T05:18:30;6.97;;;4.60;;
78131;SDS011;67381;47.672;9.380;2023-02-19T05:20:58;4.32;;;2.90;;
78131;SDS011;67381;47.672;9.380;2023-02-19T05:23:26;5.10;;;3.20;;
78131;SDS011;67381;47.672;9.380;2023-02-19T05:25:53;4.90;;;3.60;;
78131;SDS011;67381;47.672;9.380;2023-02-19T05:28:20;5.38;;;3.35;;
78131;SDS011;67381;47.672;9.380;2023-02-19T05:30:55;5.20;;;3.15;;
78131;SDS011;67381;47.672;9.380;2023-02-19T05:33:24;5.97;;;2.80;;
78131;SDS011;67381;47.672;9.380;2023-02-19T05:35:52;4.18;;;3.17;;
78131;SDS011;67381;47.672;9.380;2023-02-19T05:38:20;5.15;;;3.00;;
78131;SDS011;67381;47.672;9.380;2023-02-19T05:40:48;3.97;;;3.00;;
78131;SDS011;67381;47.672;9.380;2023-02-19T05:43:15;5.10;;;2.85;;
78131;SDS011;67381;47.672;9.380;2023-02-19T05:45:43;5.75;;;3.00;;
78131;SDS011;67381;47.672;9.380;2023-02-19T05:48:10;4.38;;;3.30;;
78131;SDS011;67381;47.672;9.380;2023-02-19T05:50:38;5.57;;;3.50;;
78131;SDS011;67381;47.672;9.380;2023-02-19T05:53:05;5.00;;;3.40;;
78131;SDS011;67381;47.672;9.380;2023-02-19T05:55:33;4.82;;;3.38;;
78131;SDS011;67381;47.672;9.380;2023-02-19T05:58:01;4.30;;;3.20;;
78131;SDS011;67381;47.672;9.380;2023-02-19T06:00:28;5.43;;;3.15;;
78131;SDS011;67381;47.672;9.380;2023-02-19T06:02:56;4.38;;;3.13;;
78131;SDS011;67381;47.672;9.380;2023-02-19T06:05:23;7.43;;;2.78;;
78131;SDS011;67381;47.672;9.380;2023-02-19T06:07:50;4.47;;;3.22;;
78131;SDS011;67381;47.672;9.380;2023-02-19T06:10:17;5.47;;;3.53;;
78131;SDS011;67381;47.672;9.380;2023-02-19T06:12:45;4.95;;;3.50;;
78131;SDS011;67381;47.672;9.380;2023-02-19T06:15:12;5.07;;;3.28;;
78131;SDS011;67381;47.672;9.380;2023-02-19T06:17:39;5.38;;;3.50;;
78131;SDS011;67381;47.672;9.380;2023-02-19T06:20:06;3.92;;;2.92;;
78131;SDS011;67381;47.672;9.380;2023-02-19T06:22:34;4.60;;;3.30;;
78131;SDS011;67381;47.672;9.380;2023-02-19T06:25:01;6.57;;;3.35;;
78131;SDS011;67381;47.672;9.380;2023-02-19T06:27:28;4.43;;;2.90;;
78131;SDS011;67381;47.672;9.380;2023-02-19T06:29:56;5.15;;;2.83;;
78131;SDS011;67381;47.672;9.380;2023-02-19T06:32:23;5.93;;;3.17;;
78131;SDS011;67381;47.672;9.380;2023-02-19T06:34:50;5.18;;;3.45;;
78131;SDS011;67381;47.672;9.380;2023-02-19T06:37:17;5.47;;;2.85;;
78131;SDS011;67381;47.672;9.380;2023-02-19T06:39:44;5.07;;;2.88;;
78131;SDS011;67381;47.672;9.380;2023-02-19T06:42:12;3.97;;;2.83;;
78131;SDS011;67381;47.672;9.380;2023-02-19T06:44:39;5.10;;;3.38;;
78131;SDS011;67381;47.672;9.380;2023-02-19T06:47:06;3.85;;;2.85;;
78131;SDS011;67381;47.672;9.380;2023-02-19T06:49:33;5.45;;;3.13;;
78131;SDS011;67381;47.672;9.380;2023-02-19T06:52:01;4.72;;;3.38;;
78131;SDS011;67381;47.672;9.380;2023-02-19T06:54:29;5.15;;;3.30;;
78131;SDS011;67381;47.672;9.380;2023-02-19T06:56:57;5.35;;;3.80;;
78131;SDS011;67381;47.672;9.380;2023-02-19T06:59:25;5.72;;;3.55;;
78131;SDS011;67381;47.672;9.380;2023-02-19T07:01:52;4.43;;;3.22;;
78131;SDS011;67381;47.672;9.380;2023-02-19T07:04:19;6.03;;;4.07;;
78131;SDS011;67381;47.672;9.380;2023-02-19T07:06:47;4.93;;;3.25;;
78131;SDS011;67381;47.672;9.380;2023-02-19T07:09:14;4.95;;;2.58;;
78131;SDS011;67381;47.672;9.380;2023-02-19T07:11:41;4.18;;;2.88;;
78131;SDS011;67381;47.672;9.380;2023-02-19T07:14:09;5.25;;;3.15;;
78131;SDS011;67381;47.672;9.380;2023-02-19T07:16:40;4.95;;;3.20;;
78131;SDS011;67381;47.672;9.380;2023-02-19T07:19:08;4.32;;;3.20;;
78131;SDS011;67381;47.672;9.380;2023-02-19T07:21:36;4.93;;;3.78;;
78131;SDS011;67381;47.672;9.380;2023-02-19T07:24:03;4.00;;;2.58;;
78131;SDS011;67381;47.672;9.380;2023-02-19T07:26:31;4.30;;;3.22;;
78131;SDS011;67381;47.672;9.380;2023-02-19T07:28:58;4.70;;;3.45;;
78131;SDS011;67381;47.672;9.380;2023-02-19T07:31:26;5.55;;;2.80;;
78131;SDS011;67381;47.672;9.380;2023-02-19T07:33:54;5.32;;;3.33;;
78131;SDS011;67381;47.672;9.380;2023-02-19T07:36:22;4.63;;;3.53;;
78131;SDS011;67381;47.672;9.380;2023-02-19T07:38:56;4.80;;;3.28;;
78131;SDS011;67381;47.672;9.380;2023-02-19T07:41:24;4.20;;;3.30;;
78131;SDS011;67381;47.672;9.380;2023-02-19T07:43:52;5.40;;;4.00;;
78131;SDS011;67381;47.672;9.380;2023-02-19T07:46:20;7.25;;;3.60;;
78131;SDS011;67381;47.672;9.380;2023-02-19T07:48:47;4.85;;;3.53;;
78131;SDS011;67381;47.672;9.380;2023-02-19T07:51:16;5.68;;;3.10;;
78131;SDS011;67381;47.672;9.380;2023-02-19T07:53:45;4.90;;;3.00;;
78131;SDS011;67381;47.672;9.380;2023-02-19T07:56:13;5.07;;;3.20;;
78131;SDS011;67381;47.672;9.380;2023-02-19T07:58:40;3.58;;;2.65;;
78131;SDS011;67381;47.672;9.380;2023-02-19T08:03:42;4.45;;;2.92;;
78131;SDS011;67381;47.672;9.380;2023-02-19T08:06:10;10.43;;;2.67;;
78131;SDS011;67381;47.672;9.380;2023-02-19T08:08:38;4.60;;;2.70;;
78131;SDS011;67381;47.672;9.380;2023-02-19T08:11:05;4.35;;;2.92;;
78131;SDS011;67381;47.672;9.380;2023-02-19T08:13:51;4.32;;;2.78;;
78131;SDS011;67381;47.672;9.380;2023-02-19T08:16:20;5.45;;;2.42;;
78131;SDS011;67381;47.672;9.380;2023-02-19T08:18:59;4.88;;;3.20;;
78131;SDS011;67381;47.672;9.380;2023-02-19T08:21:26;4.47;;;2.90;;
78131;SDS011;67381;47.672;9.380;2023-02-19T08:23:53;4.05;;;2.80;;
78131;SDS011;67381;47.672;9.380;2023-02-19T08:26:20;4.55;;;3.30;;
78131;SDS011;67381;47.672;9.380;2023-02-19T08:28:48;4.03;;;2.78;;
78131;SDS011;67381;47.672;9.380;2023-02-19T08:31:15;4.03;;;2.85;;
78131;SDS011;67381;47.672;9.380;2023-02-19T08:33:42;4.95;;;2.80;;
78131;SDS011;67381;47.672;9.380;2023-02-19T08:36:09;4.00;;;2.60;;
78131;SDS011;67381;47.672;9.380;2023-02-19T08:38:37;3.78;;;2.65;;
78131;SDS011;67381;47.672;9.380;2023-02-19T08:41:05;5.22;;;3.22;;
78131;SDS011;67381;47.672;9.380;2023-02-19T08:43:33;4.07;;;2.47;;
78131;SDS011;67381;47.672;9.380;2023-02-19T08:46:01;4.43;;;3.03;;
78131;SDS011;67381;47.672;9.380;2023-02-19T08:48:28;4.65;;;2.75;;
78131;SDS011;67381;47.672;9.380;2023-02-19T08:50:56;4.43;;;2.45;;
78131;SDS011;67381;47.672;9.380;2023-02-19T08:53:25;4.18;;;2.55;;
78131;SDS011;67381;47.672;9.380;2023-02-19T08:55:52;3.97;;;2.90;;
78131;SDS011;67381;47.672;9.380;2023-02-19T08:58:20;4.50;;;2.78;;
78131;SDS011;67381;47.672;9.380;2023-02-19T09:00:47;3.33;;;2.20;;
78131;SDS011;67381;47.672;9.380;2023-02-19T09:03:14;5.35;;;2.63;;
78131;SDS011;67381;47.672;9.380;2023-02-19T09:05:42;3.92;;;2.65;;
78131;SDS011;67381;47.672;9.380;2023-02-19T09:08:09;4.15;;;2.70;;
78131;SDS011;67381;47.672;9.380;2023-02-19T09:10:36;4.20;;;2.50;;
78131;SDS011;67381;47.672;9.380;2023-02-19T09:13:03;5.63;;;3.10;;
78131;SDS011;67381;47.672;9.380;2023-02-19T09:15:31;4.72;;;3.08;;
78131;SDS011;67381;47.672;9.380;2023-02-19T09:17:59;5.00;;;3.35;;
78131;SDS011;67381;47.672;9.380;2023-02-19T09:20:26;5.40;;;3.30;;
78131;SDS011;67381;47.672;9.380;2023-02-19T09:22:57;4.40;;;2.95;;
78131;SDS011;67381;47.672;9.380;2023-02-19T09:25:24;4.78;;;3.20;;
78131;SDS011;67381;47.672;9.380;2023-02-19T09:27:55;3.97;;;2.90;;
78131;SDS011;67381;47.672;9.380;2023-02-19T09:30:22;6.47;;;2.58;;
78131;SDS011;67381;47.672;9.380;2023-02-19T09:32:50;4.40;;;3.53;;
78131;SDS011;67381;47.672;9.380;2023-02-19T09:35:17;3.83;;;2.38;;
78131;SDS011;67381;47.672;9.380;2023-02-19T09:37:44;4.10;;;2.90;;
78131;SDS011;67381;47.672;9.380;2023-02-19T09:40:12;3.67;;;2.33;;
78131;SDS011;67381;47.672;9.380;2023-02-19T09:42:40;3.33;;;2.30;;
78131;SDS011;67381;47.672;9.380;2023-02-19T09:45:10;3.65;;;2.30;;
78131;SDS011;67381;47.672;9.380;2023-02-19T09:47:43;6.63;;;3.28;;
78131;SDS011;67381;47.672;9.380;2023-02-19T09:50:11;3.83;;;2.25;;
78131;SDS011;67381;47.672;9.380;2023-02-19T09:52:50;3.70;;;2.75;;
78131;SDS011;67381;47.672;9.380;2023-02-19T09:55:24;4.97;;;2.92;;
78131;SDS011;67381;47.672;9.380;2023-02-19T09:57:58;3.60;;;2.30;;
78131;SDS011;67381;47.672;9.380;2023-02-19T10:00:28;4.22;;;2.00;;
78131;SDS011;67381;47.672;9.380;2023-02-19T10:03:02;3.28;;;1.98;;
78131;SDS011;67381;47.672;9.380;2023-02-19T10:05:32;3.53;;;2.03;;
78131;SDS011;67381;47.672;9.380;2023-02-19T10:07:59;4.22;;;2.30;;
78131;SDS011;67381;47.672;9.380;2023-02-19T10:10:31;4.07;;;2.10;;
78131;SDS011;67381;47.672;9.380;2023-02-19T10:13:22;2.95;;;1.77;;
78131;SDS011;67381;47.672;9.380;2023-02-19T10:15:58;3.65;;;1.98;;
78131;SDS011;67381;47.672;9.380;2023-02-19T10:18:28;3.33;;;2.10;;
78131;SDS011;67381;47.672;9.380;2023-02-19T10:20:59;2.83;;;1.77;;
78131;SDS011;67381;47.672;9.380;2023-02-19T10:23:26;5.50;;;2.85;;
78131;SDS011;67381;47.672;9.380;2023-02-19T10:25:55;2.22;;;1.63;;
78131;SDS011;67381;47.672;9.380;2023-02-19T10:28:27;3.50;;;2.03;;
78131;SDS011;67381;47.672;9.380;2023-02-19T10:30:57;3.45;;;1.92;;
78131;SDS011;67381;47.672;9.380;2023-02-19T10:33:25;3.58;;;2.10;;
78131;SDS011;67381;47.672;9.380;2023-02-19T10:36:05;4.38;;;2.33;;
78131;SDS011;67381;47.672;9.380;2023-02-19T10:38:38;2.92;;;1.67;;
78131;SDS011;67381;47.672;9.380;2023-02-19T10:41:07;2.15;;;1.30;;
78131;SDS011;67381;47.672;9.380;2023-02-19T10:43:41;2.78;;;1.27;;
78131;SDS011;67381;47.672;9.380;2023-02-19T10:46:15;3.88;;;1.48;;
78131;SDS011;67381;47.672;9.380;2023-02-19T10:48:58;1.80;;;1.05;;
78131;SDS011;67381;47.672;9.380;2023-02-19T10:51:32;2.13;;;1.17;;
78131;SDS011;67381;47.672;9.380;2023-02-19T10:59:57;1.90;;;1.58;;
78131;SDS011;67381;47.672;9.380;2023-02-19T11:02:27;1.50;;;1.10;;
78131;SDS011;67381;47.672;9.380;2023-02-19T11:07:35;1.63;;;1.00;;
78131;SDS011;67381;47.672;9.380;2023-02-19T11:10:04;1.85;;;1.35;;
78131;SDS011;67381;47.672;9.380;2023-02-19T11:12:33;2.78;;;1.08;;
78131;SDS011;67381;47.672;9.380;2023-02-19T11:15:03;2.90;;;1.23;;
78131;SDS011;67381;47.672;9.380;2023-02-19T11:17:52;1.60;;;1.00;;
78131;SDS011;67381;47.672;9.380;2023-02-19T11:20:30;1.17;;;0.63;;
78131;SDS011;67381;47.672;9.380;2023-02-19T11:23:19;2.10;;;1.00;;
78131;SDS011;67381;47.672;9.380;2023-02-19T11:25:48;1.40;;;0.80;;
78131;SDS011;67381;47.672;9.380;2023-02-19T11:30:49;1.15;;;0.80;;
78131;SDS011;67381;47.672;9.380;2023-02-19T11:35:48;3.25;;;0.90;;
78131;SDS011;67381;47.672;9.380;2023-02-19T11:38:17;1.73;;;1.10;;
78131;SDS011;67381;47.672;9.380;2023-02-19T11:41:06;1.02;;;0.65;;
78131;SDS011;67381;47.672;9.380;2023-02-19T11:47:28;0.93;;;0.50;;
78131;SDS011;67381;47.672;9.380;2023-02-19T11:52:59;1.77;;;1.08;;
78131;SDS011;67381;47.672;9.380;2023-02-19T12:23:31;2.30;;;0.82;;
78131;SDS011;67381;47.672;9.380;2023-02-19T12:44:42;1.90;;;1.08;;
78131;SDS011;67381;47.672;9.380;2023-02-19T12:47:18;2.22;;;1.38;;
78131;SDS011;67381;47.672;9.380;2023-02-19T12:49:49;2.97;;;1.65;;
78131;SDS011;67381;47.672;9.380;2023-02-19T12:55:15;1.30;;;0.90;;
78131;SDS011;67381;47.672;9.380;2023-02-19T12:57:47;1.05;;;0.68;;
78131;SDS011;67381;47.672;9.380;2023-02-19T13:00:27;1.10;;;0.60;;
78131;SDS011;67381;47.672;9.380;2023-02-19T13:03:13;1.00;;;0.65;;
78131;SDS011;67381;47.672;9.380;2023-02-19T13:08:39;0.63;;;0.57;;
78131;SDS011;67381;47.672;9.380;2023-02-19T13:11:31;1.25;;;0.80;;
78131;SDS011;67381;47.672;9.380;2023-02-19T13:14:05;1.20;;;0.63;;
78131;SDS011;67381;47.672;9.380;2023-02-19T13:16:36;1.42;;;0.70;;
78131;SDS011;67381;47.672;9.380;2023-02-19T13:19:05;0.98;;;0.70;;
78131;SDS011;67381;47.672;9.380;2023-02-19T13:21:33;0.95;;;0.70;;
78131;SDS011;67381;47.672;9.380;2023-02-19T13:29:47;1.17;;;0.70;;
78131;SDS011;67381;47.672;9.380;2023-02-19T13:37:49;1.52;;;1.15;;
78131;SDS011;67381;47.672;9.380;2023-02-19T13:42:51;3.03;;;1.80;;
78131;SDS011;67381;47.672;9.380;2023-02-19T13:45:21;1.42;;;0.80;;
78131;SDS011;67381;47.672;9.380;2023-02-19T13:52:54;1.52;;;0.80;;
78131;SDS011;67381;47.672;9.380;2023-02-19T14:01:10;1.55;;;0.80;;
78131;SDS011;67381;47.672;9.380;2023-02-19T14:07:18;1.92;;;0.73;;
78131;SDS011;67381;47.672;9.380;2023-02-19T14:12:19;2.03;;;0.90;;
78131;SDS011;67381;47.672;9.380;2023-02-19T14:17:27;1.48;;;0.80;;
78131;SDS011;67381;47.672;9.380;2023-02-19T14:30:33;1.83;;;0.88;;
78131;SDS011;67381;47.672;9.380;2023-02-19T14:33:01;1.30;;;0.70;;
78131;SDS011;67381;47.672;9.380;2023-02-19T14:35:40;1.38;;;0.77;;
78131;SDS011;67381;47.672;9.380;2023-02-19T14:38:20;1.85;;;0.90;;
78131;SDS011;67381;47.672;9.380;2023-02-19T14:40:50;2.08;;;0.88;;
78131;SDS011;67381;47.672;9.380;2023-02-19T14:43:19;1.27;;;0.75;;
78131;SDS011;67381;47.672;9.380;2023-02-19T14:45:54;1.00;;;0.85;;
78131;SDS011;67381;47.672;9.380;2023-02-19T14:48:25;1.67;;;0.88;;
78131;SDS011;67381;47.672;9.380;2023-02-19T14:51:02;4.15;;;1.10;;
78131;SDS011;67381;47.672;9.380;2023-02-19T14:56:01;1.17;;;0.70;;
78131;SDS011;67381;47.672;9.380;2023-02-19T14:58:30;2.63;;;1.10;;
78131;SDS011;67381;47.672;9.380;2023-02-19T15:00:58;1.40;;;0.80;;
78131;SDS011;67381;47.672;9.380;2023-02-19T15:03:27;1.60;;;1.00;;
78131;SDS011;67381;47.672;9.380;2023-02-19T15:06:06;2.47;;;0.98;;
78131;SDS011;67381;47.672;9.380;2023-02-19T15:08:37;2.80;;;0.93;;
78131;SDS011;67381;47.672;9.380;2023-02-19T15:11:14;2.38;;;1.20;;
78131;SDS011;67381;47.672;9.380;2023-02-19T15:13:46;1.70;;;0.80;;
78131;SDS011;67381;47.672;9.380;2023-02-19T15:16:21;0.90;;;0.73;;
78131;SDS011;67381;47.672;9.380;2023-02-19T15:18:51;0.77;;;0.40;;
78131;SDS011;67381;47.672;9.380;2023-02-19T15:21:24;1.20;;;0.90;;
78131;SDS011;67381;47.672;9.380;2023-02-19T15:23:57;2.78;;;1.40;;
78131;SDS011;67381;47.672;9.380;2023-02-19T15:26:28;4.38;;;2.33;;
78131;SDS011;67381;47.672;9.380;2023-02-19T15:29:04;8.88;;;3.28;;
78131;SDS011;67381;47.672;9.380;2023-02-19T15:31:46;6.25;;;2.22;;
78131;SDS011;67381;47.672;9.380;2023-02-19T15:34:18;3.20;;;1.40;;
78131;SDS011;67381;47.672;9.380;2023-02-19T15:36:49;1.73;;;1.00;;
78131;SDS011;67381;47.672;9.380;2023-02-19T15:39:27;2.53;;;1.00;;
78131;SDS011;67381;47.672;9.380;2023-02-19T15:41:57;1.55;;;0.90;;
78131;SDS011;67381;47.672;9.380;2023-02-19T15:46:56;2.17;;;1.33;;
78131;SDS011;67381;47.672;9.380;2023-02-19T15:49:30;2.50;;;0.95;;
78131;SDS011;67381;47.672;9.380;2023-02-19T15:52:07;1.60;;;0.80;;
78131;SDS011;67381;47.672;9.380;2023-02-19T15:54:45;4.00;;;1.45;;
78131;SDS011;67381;47.672;9.380;2023-02-19T15:57:19;2.25;;;1.27;;
78131;SDS011;67381;47.672;9.380;2023-02-19T15:59:58;2.25;;;1.30;;
78131;SDS011;67381;47.672;9.380;2023-02-19T16:02:28;2.90;;;0.85;;
78131;SDS011;67381;47.672;9.380;2023-02-19T16:04:55;1.73;;;1.25;;
78131;SDS011;67381;47.672;9.380;2023-02-19T16:07:26;2.85;;;1.05;;
78131;SDS011;67381;47.672;9.380;2023-02-19T16:10:04;2.30;;;1.30;;
78131;SDS011;67381;47.672;9.380;2023-02-19T16:12:32;3.80;;;1.40;;
78131;SDS011;67381;47.672;9.380;2023-02-19T16:14:59;2.17;;;1.10;;
78131;SDS011;67381;47.672;9.380;2023-02-19T16:17:40;3.17;;;1.33;;
78131;SDS011;67381;47.672;9.380;2023-02-19T16:22:56;3.42;;;1.55;;
78131;SDS011;67381;47.672;9.380;2023-02-19T16:28:23;3.83;;;1.90;;
78131;SDS011;67381;47.672;9.380;2023-02-19T16:31:02;3.35;;;1.40;;
78131;SDS011;67381;47.672;9.380;2023-02-19T16:33:37;3.80;;;1.60;;
78131;SDS011;67381;47.672;9.380;2023-02-19T16:36:24;3.50;;;1.80;;
78131;SDS011;67381;47.672;9.380;2023-02-19T16:46:50;3.05;;;1.88;;
78131;SDS011;67381;47.672;9.380;2023-02-19T16:49:23;2.70;;;1.35;;
78131;SDS011;67381;47.672;9.380;2023-02-19T16:51:51;2.22;;;0.93;;
78131;SDS011;67381;47.672;9.380;2023-02-19T16:54:19;10.18;;;4.40;;
78131;SDS011;67381;47.672;9.380;2023-02-19T16:56:46;5.45;;;2.80;;
78131;SDS011;67381;47.672;9.380;2023-02-19T16:59:14;2.33;;;1.40;;
78131;SDS011;67381;47.672;9.380;2023-02-19T17:01:41;2.60;;;1.40;;
78131;SDS011;67381;47.672;9.380;2023-02-19T17:04:09;3.78;;;1.35;;
78131;SDS011;67381;47.672;9.380;2023-02-19T17:06:38;2.20;;;1.27;;
78131;SDS011;67381;47.672;9.380;2023-02-19T17:09:06;2.33;;;1.50;;
78131;SDS011;67381;47.672;9.380;2023-02-19T17:11:34;3.42;;;1.58;;
78131;SDS011;67381;47.672;9.380;2023-02-19T17:14:02;2.80;;;1.60;;
78131;SDS011;67381;47.672;9.380;2023-02-19T17:16:30;2.75;;;1.10;;
78131;SDS011;67381;47.672;9.380;2023-02-19T17:19:12;2.80;;;1.23;;
78131;SDS011;67381;47.672;9.380;2023-02-19T17:21:40;1.80;;;1.20;;
78131;SDS011;67381;47.672;9.380;2023-02-19T17:24:07;3.53;;;1.33;;
78131;SDS011;67381;47.672;9.380;2023-02-19T17:26:35;2.88;;;1.55;;
78131;SDS011;67381;47.672;9.380;2023-02-19T17:29:03;2.67;;;1.52;;
78131;SDS011;67381;47.672;9.380;2023-02-19T17:31:32;4.35;;;3.22;;
78131;SDS011;67381;47.672;9.380;2023-02-19T17:33:59;3.35;;;2.35;;
78131;SDS011;67381;47.672;9.380;2023-02-19T17:36:28;2.78;;;1.75;;
78131;SDS011;67381;47.672;9.380;2023-02-19T17:39:01;4.15;;;1.70;;
78131;SDS011;67381;47.672;9.380;2023-02-19T17:41:28;5.43;;;1.85;;
78131;SDS011;67381;47.672;9.380;2023-02-19T17:43:56;3.33;;;1.40;;
78131;SDS011;67381;47.672;9.380;2023-02-19T17:46:24;3.25;;;1.35;;
78131;SDS011;67381;47.672;9.380;2023-02-19T17:48:52;1.83;;;1.10;;
78131;SDS011;67381;47.672;9.380;2023-02-19T17:51:21;2.33;;;1.30;;
78131;SDS011;67381;47.672;9.380;2023-02-19T17:53:48;7.25;;;3.00;;
78131;SDS011;67381;47.672;9.380;2023-02-19T17:56:17;4.22;;;2.13;;
78131;SDS011;67381;47.672;9.380;2023-02-19T17:58:45;3.45;;;1.95;;
78131;SDS011;67381;47.672;9.380;2023-02-19T18:01:13;3.42;;;1.60;;
78131;SDS011;67381;47.672;9.380;2023-02-19T18:03:40;4.30;;;2.03;;
78131;SDS011;67381;47.672;9.380;2023-02-19T18:06:08;5.30;;;2.08;;
78131;SDS011;67381;47.672;9.380;2023-02-19T18:08:35;4.30;;;1.80;;